Mac Mahan, Maine
Current Conditions -  °F | °C
As of 6:53 PM on Saturday 22 Nov 2014 (Local Time) from KIWI Reporting Station
Clear Clear  
Wind Chill: 31°   Ceiling: Unl
Heat Index: 39°   Visibility: 10mi
Dew Point: 12°   Wind: 13mph
Humidity: 33%   Direction: 230°SW
Pressure: 30"   Gusts: 24mph
Location:  43.8074°N, 69.7472°W
Report Text: KIWI 222353Z AUTO 23011G21KT 10SM CLR 04/M11 A3000 RMK AO2 SLP160 T00391111 10039 20000 58018
Loading
Personal Weather Stations






























Interactive Weather Map New forecast layout! Learn more

10-Day Weather Forecast

Advertisements
Track Severe Weather on mobile